Time;durP1;ratioP1;P1;durP2;ratioP2;P2;SDS_P1;SDS_P2;PMS_P1;PMS_P2;Temp;Humidity;BMP_temperature;BMP_pressure;BME280_temperature;BME280_humidity;BME280_pressure;Samples;Min_cycle;Max_cycle;Signal;HPM_P1;HPM_P2
2022/05/07 00:02:19;;;;;;;30.90;5.20;;;;;;;10.55;34.65;100431.83;25140;1316;3026622;-65
2022/05/07 00:04:50;;;;;;;28.90;4.90;;;;;;;10.53;34.67;100431.22;25115;1316;3071150;-64
2022/05/07 00:07:19;;;;;;;25.20;4.00;;;;;;;10.48;34.74;100434.78;25118;1316;3028870;-63
2022/05/07 00:09:48;;;;;;;33.70;4.30;;;;;;;10.47;34.98;100435.14;25122;1316;3051341;-63
2022/05/07 00:12:17;;;;;;;29.70;4.70;;;;;;;10.47;34.80;100437.80;25100;1315;3026600;-64
2022/05/07 00:14:48;;;;;;;35.40;4.60;;;;;;;10.48;34.91;100438.27;25169;1316;3052613;-64
2022/05/07 00:20:06;;;;;;;22.10;4.70;;;;;;;10.40;35.18;100441.96;25028;1314;3054473;-62
2022/05/07 00:22:35;;;;;;;31.30;4.10;;;;;;;10.36;35.44;100437.73;25125;1316;3026711;-62
2022/05/07 00:25:05;;;;;;;19.00;4.70;;;;;;;10.30;35.46;100440.05;25090;1315;3027730;-63
2022/05/07 00:27:35;;;;;;;16.20;3.40;;;;;;;10.29;35.60;100441.70;25106;1316;3027364;-63
2022/05/07 00:30:06;;;;;;;18.50;4.20;;;;;;;10.28;35.64;100440.00;25084;1316;3029180;-62
2022/05/07 00:32:35;;;;;;;16.70;4.00;;;;;;;10.24;35.52;100440.68;25119;1316;3027327;-63
2022/05/07 00:35:05;;;;;;;22.40;3.50;;;;;;;10.24;35.79;100442.10;25153;1316;3027458;-63
2022/05/07 00:37:34;;;;;;;16.10;3.70;;;;;;;10.25;35.58;100440.27;25071;1315;3051832;-64
2022/05/07 00:40:04;;;;;;;18.90;3.90;;;;;;;10.25;35.58;100438.73;25120;1316;3026481;-65
2022/05/07 00:42:33;;;;;;;24.90;3.60;;;;;;;10.20;35.88;100441.58;25097;1316;3070076;-64
2022/05/07 00:45:02;;;;;;;13.60;3.70;;;;;;;10.17;35.87;100441.31;25156;1316;3026411;-63
2022/05/07 00:48:32;;;;;;;17.60;4.50;;;;;;;10.26;35.88;100440.61;31416;1319;3026234;-64
2022/05/07 00:53:48;;;;;;;12.60;4.40;;;;;;;10.64;35.56;100438.76;24981;1322;3055162;-62
2022/05/07 00:56:18;;;;;;;14.00;5.00;;;;;;;10.48;35.77;100440.89;25045;1316;3026264;-64
2022/05/07 00:58:47;;;;;;;21.10;5.50;;;;;;;10.35;36.06;100441.98;25019;1319;3054782;-64
2022/05/07 01:01:17;;;;;;;17.00;5.10;;;;;;;10.25;36.78;100440.80;24936;1319;3220670;-64
2022/05/07 01:03:46;;;;;;;21.80;5.10;;;;;;;10.16;37.09;100440.86;25162;1313;3026727;-62
2022/05/07 01:06:16;;;;;;;18.20;5.00;;;;;;;10.08;37.63;100441.91;25126;1316;3052196;-63
2022/05/07 01:08:48;;;;;;;13.30;4.70;;;;;;;10.04;37.78;100443.98;25103;1313;3026715;-62
2022/05/07 01:11:20;;;;;;;17.90;4.40;;;;;;;9.97;38.56;100444.82;25114;1313;3048242;-64
2022/05/07 01:13:53;;;;;;;18.70;4.30;;;;;;;9.95;38.81;100444.04;25095;1313;3054608;-62
2022/05/07 01:16:23;;;;;;;15.00;4.60;;;;;;;9.98;38.52;100440.40;25088;1313;3026734;-63
2022/05/07 01:18:52;;;;;;;23.80;4.60;;;;;;;9.95;39.13;100443.30;25056;1316;3051607;-64
2022/05/07 01:21:22;;;;;;;16.60;4.40;;;;;;;9.86;39.69;100448.61;25138;1313;3026385;-65
2022/05/07 01:23:52;;;;;;;13.60;4.00;;;;;;;9.84;39.51;100449.38;25158;1313;3068999;-63
2022/05/07 01:26:25;;;;;;;11.80;4.40;;;;;;;9.83;39.68;100451.86;25129;1313;3026807;-62
2022/05/07 01:29:01;;;;;;;10.10;3.90;;;;;;;9.81;40.17;100460.20;25151;1313;3026798;-67
2022/05/07 01:31:32;;;;;;;13.50;4.00;;;;;;;9.78;40.36;100464.52;25115;1316;3055162;-64
2022/05/07 01:34:01;;;;;;;10.60;4.30;;;;;;;9.72;40.51;100468.42;25156;1313;3026355;-65
2022/05/07 01:36:30;;;;;;;17.60;4.20;;;;;;;9.65;41.24;100468.52;25050;1313;3053024;-63
2022/05/07 01:39:04;;;;;;;15.90;3.90;;;;;;;9.63;40.62;100466.17;25144;1313;3054049;-64
2022/05/07 01:41:33;;;;;;;14.20;4.50;;;;;;;9.60;41.04;100469.28;25169;1316;3026704;-63
2022/05/07 01:44:06;;;;;;;13.60;4.80;;;;;;;9.55;41.10;100466.83;25115;1316;3026868;-64
2022/05/07 01:49:26;;;;;;;19.70;4.20;;;;;;;9.51;40.67;100471.71;25145;1312;3058926;-62
2022/05/07 01:51:56;;;;;;;12.40;5.00;;;;;;;9.54;40.21;100475.62;25065;1313;3026592;-63
2022/05/07 01:54:26;;;;;;;15.50;4.60;;;;;;;9.53;40.14;100479.16;25154;1313;3026602;-64
2022/05/07 01:56:55;;;;;;;16.30;4.80;;;;;;;9.46;40.59;100484.32;25134;1313;3058050;-62
2022/05/07 01:59:25;;;;;;;17.00;4.60;;;;;;;9.40;41.02;100481.26;25098;1313;3027718;-64
2022/05/07 02:01:56;;;;;;;19.90;4.80;;;;;;;9.42;40.42;100482.73;25102;1313;3026227;-63
2022/05/07 02:04:26;;;;;;;20.80;5.00;;;;;;;9.48;40.12;100488.13;25126;1313;3026762;-65
2022/05/07 02:06:55;;;;;;;14.80;4.80;;;;;;;9.47;40.13;100482.02;25129;1313;3026450;-65
2022/05/07 02:09:25;;;;;;;16.30;5.40;;;;;;;9.40;40.46;100481.77;25144;1313;3026798;-64
2022/05/07 02:11:54;;;;;;;20.10;4.50;;;;;;;9.36;40.50;100485.23;25101;1313;3026469;-63
2022/05/07 02:14:24;;;;;;;14.80;4.60;;;;;;;9.34;40.67;100489.35;25114;1314;3070161;-66
2022/05/07 02:16:54;;;;;;;19.30;6.10;;;;;;;9.34;40.42;100486.55;25186;1316;3026523;-65
2022/05/07 02:19:23;;;;;;;15.50;4.30;;;;;;;9.34;40.37;100490.76;25257;1313;3026371;-63
2022/05/07 02:21:52;;;;;;;14.80;4.70;;;;;;;9.31;40.55;100489.31;25584;1313;3066518;-63
2022/05/07 02:24:21;;;;;;;20.00;4.80;;;;;;;9.29;40.76;100494.45;25348;1312;3027010;-64
2022/05/07 02:26:50;;;;;;;12.50;4.70;;;;;;;9.28;40.72;100499.37;25826;1313;3048765;-62
2022/05/07 02:29:20;;;;;;;32.00;8.90;;;;;;;9.27;40.99;100498.87;25836;1313;3026940;-63
2022/05/07 02:32:06;;;;;;;16.10;5.50;;;;;;;9.25;41.42;100504.91;25860;1313;3026417;-63
2022/05/07 02:34:42;;;;;;;23.40;5.20;;;;;;;9.26;41.56;100504.89;25234;1313;3052440;-64
2022/05/07 02:37:18;;;;;;;21.80;4.60;;;;;;;9.26;41.35;100506.10;25162;1313;3053781;-65
2022/05/07 02:39:53;;;;;;;19.00;5.10;;;;;;;9.32;41.25;100507.79;25128;1313;3028406;-63
2022/05/07 02:42:33;;;;;;;16.20;5.50;;;;;;;9.30;41.76;100508.91;25121;1313;3026095;-63
2022/05/07 02:45:08;;;;;;;15.20;4.90;;;;;;;9.31;41.60;100507.13;25149;1313;3052924;-62
2022/05/07 02:47:39;;;;;;;20.80;5.30;;;;;;;9.38;41.25;100507.20;25136;1313;3049762;-62
2022/05/07 02:50:09;;;;;;;15.20;4.90;;;;;;;9.51;40.55;100508.10;25098;1313;3026623;-64
2022/05/07 02:52:39;;;;;;;21.20;5.20;;;;;;;9.50;41.06;100504.80;25130;1313;3026260;-64
2022/05/07 02:55:10;;;;;;;25.30;5.50;;;;;;;9.48;41.09;100511.02;25109;1312;3026484;-64
2022/05/07 02:57:40;;;;;;;11.50;5.00;;;;;;;9.47;41.26;100512.45;25175;1313;3026240;-64
2022/05/07 03:00:10;;;;;;;22.00;5.90;;;;;;;9.46;41.49;100513.53;25108;1312;3026748;-64
2022/05/07 03:02:39;;;;;;;22.20;5.60;;;;;;;9.43;42.36;100514.36;25140;1313;3026462;-64
2022/05/07 03:05:09;;;;;;;18.90;5.40;;;;;;;9.40;42.63;100518.66;25168;1313;3026349;-64
2022/05/07 03:07:39;;;;;;;15.40;5.60;;;;;;;9.40;43.19;100522.52;25132;1313;3028581;-64
2022/05/07 03:10:15;;;;;;;20.10;5.90;;;;;;;9.41;43.41;100522.30;25063;1316;3070693;-62
2022/05/07 03:12:48;;;;;;;28.90;7.10;;;;;;;9.43;43.74;100524.15;25132;1313;3048446;-65
2022/05/07 03:15:20;;;;;;;16.70;5.40;;;;;;;9.44;44.19;100526.75;25145;1313;3026707;-62
2022/05/07 03:17:49;;;;;;;23.50;6.30;;;;;;;9.45;44.41;100532.65;25124;1313;3026850;-64
2022/05/07 03:20:18;;;;;;;21.60;7.20;;;;;;;9.47;44.22;100531.70;25069;1313;3026303;-63
2022/05/07 03:22:48;;;;;;;22.90;5.40;;;;;;;9.51;43.99;100533.09;25183;1313;3051837;-64
2022/05/07 03:25:17;;;;;;;17.40;6.10;;;;;;;9.56;43.78;100534.14;25107;1313;3026462;-63
2022/05/07 03:27:48;;;;;;;24.90;6.00;;;;;;;9.60;43.66;100534.50;25165;1313;3048823;-64
2022/05/07 03:30:20;;;;;;;14.80;6.00;;;;;;;9.64;43.57;100535.92;25190;1316;3026642;-63
2022/05/07 03:33:08;;;;;;;22.40;5.60;;;;;;;9.70;43.35;100546.53;25171;1313;3055033;-64
2022/05/07 03:35:39;;;;;;;18.20;6.40;;;;;;;9.70;43.48;100552.28;25059;1316;3027040;-62
2022/05/07 03:38:08;;;;;;;21.20;5.80;;;;;;;9.71;43.57;100550.85;25080;1313;3029609;-62
2022/05/07 03:40:45;;;;;;;25.30;5.70;;;;;;;9.75;44.00;100551.21;25145;1315;3053298;-65
2022/05/07 03:43:15;;;;;;;17.70;5.90;;;;;;;9.76;44.35;100554.70;25130;1313;3026307;-66
2022/05/07 03:45:45;;;;;;;14.60;6.70;;;;;;;9.80;44.48;100556.95;25112;1315;3026966;-64
2022/05/07 03:48:16;;;;;;;19.70;6.50;;;;;;;9.87;44.41;100556.48;25145;1313;3028664;-64
2022/05/07 03:50:49;;;;;;;20.30;6.20;;;;;;;9.90;44.61;100557.64;25178;1313;3053745;-63
2022/05/07 03:53:30;;;;;;;20.90;7.10;;;;;;;9.97;44.51;100555.25;25183;1313;3026919;-65
2022/05/07 03:56:06;;;;;;;20.00;6.70;;;;;;;10.01;44.48;100559.13;25114;1313;3057969;-64
2022/05/07 03:58:37;;;;;;;21.40;6.90;;;;;;;10.03;44.09;100561.84;25110;1316;3029941;-63
2022/05/07 04:01:08;;;;;;;17.50;6.90;;;;;;;10.05;44.48;100562.44;25144;1313;3026404;-64
2022/05/07 04:03:39;;;;;;;22.40;6.60;;;;;;;10.10;44.28;100561.38;25174;1311;3027385;-64
2022/05/07 04:06:09;;;;;;;15.00;6.80;;;;;;;10.15;44.08;100561.52;25122;1312;3029005;-61
2022/05/07 04:08:40;;;;;;;15.10;6.40;;;;;;;10.18;43.91;100556.52;25076;1316;3026480;-65
2022/05/07 04:11:11;;;;;;;18.30;6.00;;;;;;;10.21;43.59;100556.35;25150;1313;3027079;-64
2022/05/07 04:13:41;;;;;;;18.10;6.30;;;;;;;10.24;43.62;100557.27;25135;1313;3028722;-64
2022/05/07 04:16:11;;;;;;;20.80;6.10;;;;;;;10.32;43.29;100553.98;25156;1313;3026354;-64
2022/05/07 04:18:53;;;;;;;15.80;5.20;;;;;;;10.37;42.87;100554.48;25176;1313;3050495;-65
2022/05/07 04:21:23;;;;;;;20.60;5.40;;;;;;;10.41;42.86;100557.13;25177;1313;3026139;-62
2022/05/07 04:23:52;;;;;;;20.30;5.50;;;;;;;10.47;42.72;100555.64;25116;1313;3026892;-63
2022/05/07 04:26:22;;;;;;;24.80;5.50;;;;;;;10.54;42.16;100559.23;25174;1312;3049637;-64
2022/05/07 04:28:52;;;;;;;16.30;5.50;;;;;;;10.56;41.63;100557.54;25166;1313;3026426;-65
2022/05/07 04:31:21;;;;;;;25.40;5.40;;;;;;;10.62;41.29;100558.71;25119;1312;3029005;-65
2022/05/07 04:33:57;;;;;;;25.00;5.90;;;;;;;10.63;40.92;100560.73;25127;1313;3052056;-64
2022/05/07 04:36:26;;;;;;;21.40;5.30;;;;;;;10.69;40.68;100556.13;25162;1313;3026434;-65
2022/05/07 04:39:00;;;;;;;23.60;4.70;;;;;;;10.76;40.25;100559.85;25148;1313;3049567;-64
2022/05/07 04:41:32;;;;;;;25.70;5.50;;;;;;;10.85;39.77;100556.84;25153;1313;3026140;-64
2022/05/07 04:44:01;;;;;;;21.00;5.50;;;;;;;10.86;39.65;100556.58;25133;1316;3026824;-66
2022/05/07 04:46:31;;;;;;;20.20;5.00;;;;;;;10.90;39.35;100560.61;25155;1313;3026938;-62
2022/05/07 04:49:06;;;;;;;28.70;4.70;;;;;;;10.97;38.99;100561.02;25173;1313;3051185;-63
2022/05/07 04:51:35;;;;;;;28.60;5.70;;;;;;;11.07;38.54;100555.13;25104;1313;3026330;-65
2022/05/07 04:54:14;;;;;;;24.90;5.20;;;;;;;11.14;38.36;100557.62;25099;1313;3050263;-64
2022/05/07 04:56:44;;;;;;;24.30;4.90;;;;;;;11.21;38.21;100559.06;25140;1312;3026302;-65
2022/05/07 04:59:14;;;;;;;24.30;4.50;;;;;;;11.29;37.59;100557.29;25135;1316;3026620;-65
2022/05/07 05:01:51;;;;;;;29.80;5.50;;;;;;;11.35;37.36;100563.14;25140;1313;3068296;-64
2022/05/07 05:04:22;;;;;;;25.10;5.10;;;;;;;11.39;36.40;100561.55;25188;1313;3028991;-63
2022/05/07 05:06:54;;;;;;;27.00;4.60;;;;;;;11.42;36.12;100560.91;25142;1313;3026549;-66
2022/05/07 05:09:31;;;;;;;21.10;4.80;;;;;;;11.53;36.21;100561.10;25165;1312;3055128;-67
2022/05/07 05:12:07;;;;;;;29.00;3.90;;;;;;;11.56;36.06;100557.79;25199;1313;3057557;-65
2022/05/07 05:17:37;;;;;;;25.90;4.50;;;;;;;11.65;35.90;100556.17;25104;1313;3055803;-64
2022/05/07 05:20:09;;;;;;;24.50;3.80;;;;;;;11.70;35.74;100552.92;25137;1316;3026853;-63
2022/05/07 05:22:50;;;;;;;25.00;4.20;;;;;;;11.79;35.66;100559.34;25134;1313;3026732;-63
2022/05/07 05:25:22;;;;;;;28.80;4.70;;;;;;;11.84;35.51;100558.91;25163;1313;3051932;-65
2022/05/07 05:27:52;;;;;;;18.20;4.90;;;;;;;11.88;35.33;100559.77;25201;1313;3027219;-64
2022/05/07 05:30:22;;;;;;;22.10;3.30;;;;;;;11.97;35.34;100560.58;25153;1313;3026925;-65
2022/05/07 05:32:51;;;;;;;23.60;3.80;;;;;;;12.04;35.34;100561.31;25155;1313;3027840;-65
2022/05/07 05:35:22;;;;;;;24.10;3.40;;;;;;;12.09;35.07;100559.98;25152;1313;3026466;-66
2022/05/07 05:37:54;;;;;;;10.80;2.90;;;;;;;12.20;34.59;100555.95;25186;1313;3026818;-66
2022/05/07 05:40:24;;;;;;;17.30;3.90;;;;;;;12.23;34.29;100552.85;25127;1313;3027307;-64
2022/05/07 05:42:57;;;;;;;14.30;2.80;;;;;;;12.29;33.51;100555.48;25188;1313;3026455;-64
2022/05/07 05:45:27;;;;;;;12.70;3.00;;;;;;;12.37;32.94;100552.11;25134;1316;3026736;-64
2022/05/07 05:47:56;;;;;;;16.30;2.50;;;;;;;12.44;32.67;100551.80;25111;1313;3052984;-65
2022/05/07 05:50:30;;;;;;;10.50;2.90;;;;;;;12.50;32.30;100552.86;25198;1313;3026344;-67
2022/05/07 05:52:59;;;;;;;14.40;3.30;;;;;;;12.53;32.19;100550.23;25167;1313;3028914;-65
2022/05/07 05:55:29;;;;;;;32.70;3.70;;;;;;;12.62;32.27;100551.58;25152;1313;3026734;-65
2022/05/07 05:57:58;;;;;;;21.00;2.90;;;;;;;12.67;31.87;100552.69;25153;1313;3030039;-64
2022/05/07 06:00:27;;;;;;;15.60;3.30;;;;;;;12.77;31.92;100546.56;25147;1312;3051916;-64
2022/05/07 06:02:56;;;;;;;15.00;3.00;;;;;;;12.79;31.66;100548.73;25164;1313;3025980;-64
2022/05/07 06:05:30;;;;;;;27.00;3.70;;;;;;;12.84;31.45;100544.77;25186;1313;3071860;-65
2022/05/07 06:08:01;;;;;;;12.20;2.90;;;;;;;12.88;31.29;100541.95;25153;1316;3027514;-63
2022/05/07 06:10:38;;;;;;;14.70;2.90;;;;;;;12.90;30.44;100540.56;25148;1313;3052835;-65
2022/05/07 06:13:10;;;;;;;14.90;3.20;;;;;;;12.89;30.17;100538.34;25173;1313;3026733;-65
2022/05/07 06:15:51;;;;;;;18.60;2.30;;;;;;;13.01;30.26;100539.84;25136;1313;3058901;-64
2022/05/07 06:18:22;;;;;;;15.30;2.60;;;;;;;13.15;30.19;100540.33;25124;1313;3051240;-62
2022/05/07 06:20:54;;;;;;;8.20;2.30;;;;;;;13.25;30.26;100541.54;25165;1313;3026534;-67
2022/05/07 06:23:25;;;;;;;9.50;2.30;;;;;;;13.32;30.17;100540.78;25204;1313;3027466;-65
2022/05/07 06:28:42;;;;;;;15.60;2.30;;;;;;;13.47;29.43;100535.63;25214;1313;3052896;-65
2022/05/07 06:31:13;;;;;;;9.20;2.20;;;;;;;13.53;28.67;100535.29;25175;1313;3026510;-65
2022/05/07 06:33:43;;;;;;;7.50;2.00;;;;;;;13.57;28.39;100530.63;25136;1313;3026622;-65
2022/05/07 06:36:17;;;;;;;12.60;1.70;;;;;;;13.52;27.24;100529.52;25164;1313;3051460;-64
2022/05/07 06:38:46;;;;;;;9.10;1.80;;;;;;;13.59;27.37;100528.60;25163;1313;3027068;-65
2022/05/07 06:41:16;;;;;;;8.20;1.80;;;;;;;13.68;27.95;100533.89;25138;1313;3068871;-65
2022/05/07 06:43:50;;;;;;;8.70;1.80;;;;;;;13.75;27.64;100530.35;25183;1313;3048821;-63
2022/05/07 06:46:34;;;;;;;10.80;2.20;;;;;;;13.74;27.65;100531.66;25181;1313;3054991;-65
2022/05/07 06:49:09;;;;;;;9.70;2.00;;;;;;;13.89;27.97;100530.09;25144;1313;3052507;-66
2022/05/07 06:51:48;;;;;;;8.70;2.00;;;;;;;14.04;27.67;100528.86;25183;1313;3056710;-66
2022/05/07 06:54:19;;;;;;;9.00;2.50;;;;;;;14.05;27.29;100527.08;25188;1313;3026225;-64
2022/05/07 06:56:48;;;;;;;8.30;2.10;;;;;;;14.11;26.74;100524.77;25143;1313;3026505;-63
2022/05/07 06:59:17;;;;;;;10.00;2.20;;;;;;;14.07;26.64;100524.98;25219;1313;3058363;-65
2022/05/07 07:01:45;;;;;;;11.40;1.80;;;;;;;14.14;26.73;100518.92;25132;1313;3026529;-65
2022/05/07 07:04:15;;;;;;;10.00;2.80;;;;;;;14.22;26.83;100518.45;25167;1313;3054962;-64
2022/05/07 07:06:44;;;;;;;11.60;2.80;;;;;;;14.21;26.91;100523.11;25154;1313;3026627;-64
2022/05/07 07:09:13;;;;;;;8.00;1.90;;;;;;;14.30;27.19;100517.13;25136;1313;3051578;-65
2022/05/07 07:11:42;;;;;;;18.70;2.90;;;;;;;14.39;26.87;100517.09;25185;1313;3028552;-65
2022/05/07 07:14:13;;;;;;;5.60;2.10;;;;;;;14.41;26.22;100515.77;25186;1313;3027358;-63
2022/05/07 07:17:01;;;;;;;7.50;2.00;;;;;;;14.37;26.42;100516.88;25187;1313;3049701;-64
2022/05/07 07:19:31;;;;;;;16.70;2.20;;;;;;;14.42;26.81;100512.55;25162;1313;3027678;-64
2022/05/07 07:22:00;;;;;;;10.20;2.50;;;;;;;14.43;26.55;100510.33;25202;1313;3055916;-66
2022/05/07 07:24:30;;;;;;;20.20;2.90;;;;;;;14.51;27.06;100506.91;25166;1313;3026884;-65
2022/05/07 07:26:59;;;;;;;14.80;2.50;;;;;;;14.57;26.90;100512.33;25163;1313;3026418;-64
2022/05/07 07:29:28;;;;;;;8.60;2.40;;;;;;;14.57;26.28;100510.23;25240;1313;3056144;-64
2022/05/07 07:31:57;;;;;;;12.60;2.60;;;;;;;14.60;26.13;100513.20;25835;1312;3026081;-66
2022/05/07 07:34:26;;;;;;;9.90;2.20;;;;;;;14.61;26.32;100515.98;25942;1313;3051524;-65
2022/05/07 07:36:56;;;;;;;13.80;2.40;;;;;;;14.71;26.46;100509.40;25928;1313;3026314;-66
2022/05/07 07:39:27;;;;;;;10.80;1.90;;;;;;;14.87;26.27;100504.03;25438;1313;3028536;-65
2022/05/07 07:41:56;;;;;;;10.60;2.80;;;;;;;15.02;26.33;100499.05;25218;1312;3026422;-65
2022/05/07 07:44:28;;;;;;;13.00;2.10;;;;;;;15.12;26.45;100498.23;25164;1313;3026686;-64
2022/05/07 07:47:57;;;;;;;10.60;2.20;;;;;;;15.09;26.23;100493.97;25183;1313;3050928;-64
2022/05/07 07:49:56;;;;;;;9.20;2.20;;;;;;;15.16;26.02;100491.45;25183;1311;3052748;-65
2022/05/07 07:52:25;;;;;;;7.60;2.30;;;;;;;15.19;25.91;100491.27;25160;1313;3026498;-63
2022/05/07 07:54:56;;;;;;;8.70;2.60;;;;;;;15.22;26.31;100490.51;25198;1310;3026567;-66
2022/05/07 07:57:25;;;;;;;10.10;2.20;;;;;;;15.31;26.23;100481.34;25177;1313;3054960;-68
2022/05/07 07:59:54;;;;;;;9.70;1.90;;;;;;;15.42;25.84;100477.27;25178;1313;3026498;-65
2022/05/07 08:02:23;;;;;;;13.00;2.00;;;;;;;15.43;24.92;100483.70;25160;1313;3051483;-64
2022/05/07 08:04:54;;;;;;;12.60;1.70;;;;;;;15.51;24.69;100480.52;25177;1313;3026711;-64
2022/05/07 08:12:59;;;;;;;6.30;1.90;;;;;;;15.66;24.62;100474.13;25195;1313;3055882;-64
2022/05/07 08:15:27;;;;;;;17.90;1.80;;;;;;;15.71;24.79;100469.32;25191;1313;3026612;-64
2022/05/07 08:17:56;;;;;;;8.90;2.00;;;;;;;15.84;24.51;100468.37;25217;1313;3049551;-64
2022/05/07 08:20:27;;;;;;;4.70;1.40;;;;;;;15.88;24.24;100465.77;25183;1313;3026930;-66
2022/05/07 08:22:57;;;;;;;11.70;2.30;;;;;;;16.07;24.42;100465.40;25240;1313;3026401;-65
2022/05/07 08:25:25;;;;;;;7.00;2.00;;;;;;;16.24;24.42;100462.33;25173;1313;3026088;-65
2022/05/07 08:27:55;;;;;;;14.00;1.90;;;;;;;16.26;24.13;100459.89;25217;1313;3055410;-65
2022/05/07 08:30:24;;;;;;;16.30;2.70;;;;;;;16.34;23.84;100460.23;25168;1312;3026981;-66
2022/05/07 08:32:53;;;;;;;20.10;2.90;;;;;;;16.41;23.64;100461.70;25102;1313;3052102;-65
2022/05/07 08:35:22;;;;;;;7.60;2.30;;;;;;;16.49;23.59;100461.17;25236;1313;3026569;-66
2022/05/07 08:37:52;;;;;;;8.50;2.30;;;;;;;16.46;23.51;100461.33;25174;1313;3058132;-65
2022/05/07 08:40:22;;;;;;;10.40;1.80;;;;;;;16.46;23.33;100460.11;25158;1313;3028662;-65
2022/05/07 08:42:51;;;;;;;8.40;1.60;;;;;;;16.44;23.24;100460.10;25188;1313;3050541;-65
2022/05/07 08:45:20;;;;;;;9.80;1.90;;;;;;;16.49;23.57;100456.38;25142;1313;3027934;-65
2022/05/07 08:47:53;;;;;;;6.70;1.70;;;;;;;16.62;23.78;100450.31;25175;1313;3054681;-65
2022/05/07 08:50:23;;;;;;;8.10;1.80;;;;;;;16.81;23.60;100447.98;25218;1312;3028083;-65
2022/05/07 08:52:53;;;;;;;4.80;1.80;;;;;;;16.91;23.83;100444.79;25176;1313;3027157;-64
2022/05/07 08:55:22;;;;;;;10.20;2.00;;;;;;;17.02;23.69;100444.90;25132;1313;3026686;-67
2022/05/07 08:57:51;;;;;;;10.00;2.00;;;;;;;17.04;23.57;100441.21;25224;1313;3054245;-64
2022/05/07 09:00:23;;;;;;;8.20;2.00;;;;;;;17.07;23.42;100440.77;25207;1313;3026393;-64
2022/05/07 09:02:56;;;;;;;16.80;2.00;;;;;;;17.21;23.32;100431.66;25156;1313;3027499;-67
2022/05/07 09:05:34;;;;;;;6.60;2.30;;;;;;;17.21;23.40;100428.25;25208;1313;3055284;-67
2022/05/07 09:08:06;;;;;;;5.20;1.90;;;;;;;17.25;23.14;100429.36;25198;1311;3051142;-67
2022/05/07 09:10:36;;;;;;;6.00;1.40;;;;;;;17.33;23.07;100424.04;25112;1313;3026309;-66
2022/05/07 09:13:13;;;;;;;12.30;1.80;;;;;;;17.37;23.08;100426.77;25126;1313;3026758;-66
2022/05/07 09:15:54;;;;;;;10.60;1.90;;;;;;;17.44;23.17;100422.52;25212;1313;3055230;-63
2022/05/07 09:18:26;;;;;;;7.70;1.90;;;;;;;17.54;22.72;100416.66;25183;1313;3052302;-67
2022/05/07 09:23:55;;;;;;;9.60;2.00;;;;;;;17.71;23.27;100410.59;25118;1313;3053686;-66
2022/05/07 09:26:24;;;;;;;5.40;1.50;;;;;;;17.78;22.74;100403.68;25217;1313;3028773;-67
2022/05/07 09:28:53;;;;;;;7.50;1.90;;;;;;;17.85;22.22;100401.54;25143;1313;3056447;-65
2022/05/07 09:31:27;;;;;;;6.30;2.00;;;;;;;17.89;22.47;100395.05;25137;1313;3026548;-67
2022/05/07 09:35:47;;;;;;;7.30;1.60;;;;;;;17.95;21.46;100396.06;25186;1313;3053825;-66
2022/05/07 09:36:48;;;;;;;13.20;2.00;;;;;;;18.00;20.83;100399.42;25182;1313;3054153;-66
2022/05/07 09:39:17;;;;;;;9.40;1.90;;;;;;;18.11;20.76;100399.57;25170;1313;3028418;-64
2022/05/07 09:41:52;;;;;;;4.80;1.60;;;;;;;18.14;21.17;100398.99;25173;1313;3052135;-67
2022/05/07 09:44:24;;;;;;;15.20;2.00;;;;;;;18.30;20.95;100396.75;25155;1313;3049624;-65
2022/05/07 09:46:55;;;;;;;8.00;1.60;;;;;;;18.45;20.47;100393.42;25148;1310;3029152;-63
2022/05/07 09:49:28;;;;;;;5.10;1.80;;;;;;;18.47;20.57;100389.70;25212;1312;3027170;-68
2022/05/07 09:51:58;;;;;;;10.60;2.10;;;;;;;18.63;20.69;100383.34;25165;1313;3054832;-65
2022/05/07 09:57:33;;;;;;;7.40;1.80;;;;;;;18.88;20.14;100385.40;25190;1313;3049561;-65
2022/05/07 10:00:07;;;;;;;7.00;2.10;;;;;;;18.91;19.85;100378.55;25206;1313;3054066;-64
2022/05/07 10:02:48;;;;;;;7.90;1.90;;;;;;;18.90;20.59;100376.38;25143;1313;3052933;-66
2022/05/07 10:05:28;;;;;;;10.90;1.80;;;;;;;18.98;20.34;100373.82;25197;1313;3056554;-66
2022/05/07 10:08:28;;;;;;;10.50;2.20;;;;;;;19.06;20.16;100370.30;25151;1313;3050094;-64
2022/05/07 10:10:57;;;;;;;12.00;2.70;;;;;;;19.11;20.65;100373.75;25073;1313;3055989;-64
2022/05/07 10:13:29;;;;;;;11.80;2.60;;;;;;;19.28;20.13;100369.33;25214;1313;3026785;-66
2022/05/07 10:16:02;;;;;;;7.60;2.20;;;;;;;19.27;19.45;100364.10;25127;1313;3028134;-65
2022/05/07 10:18:36;;;;;;;8.10;1.90;;;;;;;19.24;19.62;100367.58;25181;1313;3052961;-67
2022/05/07 10:21:11;;;;;;;15.40;2.00;;;;;;;19.37;19.81;100363.17;25206;1313;3050595;-68
2022/05/07 10:23:53;;;;;;;12.10;1.90;;;;;;;19.33;20.11;100367.33;25175;1313;3069159;-68
2022/05/07 10:26:24;;;;;;;11.90;2.00;;;;;;;19.52;19.36;100365.39;25207;1313;3049126;-65
2022/05/07 10:28:53;;;;;;;9.00;2.20;;;;;;;19.60;19.22;100358.71;25232;1313;3026883;-65
2022/05/07 10:31:23;;;;;;;12.70;2.40;;;;;;;19.72;19.48;100353.80;25176;1313;3026436;-65
2022/05/07 10:33:52;;;;;;;12.30;2.80;;;;;;;19.77;19.42;100349.83;25197;1313;3051239;-66
2022/05/07 10:36:21;;;;;;;11.40;3.70;;;;;;;19.79;19.36;100349.64;25162;1313;3026540;-66
2022/05/07 10:38:50;;;;;;;13.20;2.30;;;;;;;19.87;19.34;100344.08;25188;1312;3070869;-65
2022/05/07 10:41:20;;;;;;;7.30;2.30;;;;;;;19.86;18.95;100335.60;25124;1313;3026855;-68
2022/05/07 10:43:56;;;;;;;7.00;1.90;;;;;;;19.88;19.02;100333.92;25140;1313;3053061;-66
2022/05/07 10:46:37;;;;;;;7.90;2.40;;;;;;;19.89;19.03;100324.34;25156;1313;3070644;-64
2022/05/07 10:49:05;;;;;;;6.80;2.10;;;;;;;19.94;19.04;100320.83;25187;1312;3051497;-66
2022/05/07 10:51:39;;;;;;;8.20;2.80;;;;;;;20.07;18.97;100323.41;25189;1313;3026325;-65
2022/05/07 10:54:18;;;;;;;10.20;2.40;;;;;;;20.05;18.93;100320.96;25242;1311;3054526;-66
2022/05/07 10:56:54;;;;;;;17.40;2.70;;;;;;;20.16;18.83;100320.52;25172;1313;3056130;-67
2022/05/07 10:59:26;;;;;;;9.90;2.30;;;;;;;20.34;18.98;100322.73;25126;1312;3052116;-64
2022/05/07 11:02:08;;;;;;;9.80;3.00;;;;;;;20.42;18.81;100318.13;25255;1313;3026846;-67
2022/05/07 11:04:44;;;;;;;9.70;2.50;;;;;;;20.45;18.88;100316.91;25198;1313;3051952;-64
2022/05/07 11:07:20;;;;;;;7.20;2.70;;;;;;;20.33;18.36;100312.33;25166;1313;3070945;-66
2022/05/07 11:09:50;;;;;;;4.50;2.30;;;;;;;20.43;18.72;100308.07;25226;1313;3049004;-65
2022/05/07 11:12:21;;;;;;;9.60;2.80;;;;;;;20.57;18.57;100304.86;25173;1313;3027554;-66
2022/05/07 11:14:51;;;;;;;7.20;2.50;;;;;;;20.52;18.70;100298.92;25155;1313;3026707;-65
2022/05/07 11:17:34;;;;;;;10.80;3.40;;;;;;;20.55;18.78;100299.34;25199;1312;3028719;-65
2022/05/07 11:20:04;;;;;;;13.30;2.50;;;;;;;20.74;18.82;100299.08;25205;1313;3050170;-65
2022/05/07 11:22:33;;;;;;;10.50;2.80;;;;;;;20.87;18.72;100294.39;25134;1313;3026669;-63
2022/05/07 11:25:03;;;;;;;10.40;2.50;;;;;;;20.96;18.43;100287.71;25200;1313;3027904;-65
2022/05/07 11:27:33;;;;;;;8.90;2.50;;;;;;;21.09;18.24;100288.30;25198;1313;3026674;-65
2022/05/07 11:30:04;;;;;;;7.70;2.40;;;;;;;21.23;18.04;100283.45;25225;1313;3027172;-64
2022/05/07 11:32:41;;;;;;;8.60;2.30;;;;;;;21.24;17.65;100283.61;25184;1313;3026037;-64
2022/05/07 11:35:10;;;;;;;14.80;2.90;;;;;;;21.37;17.44;100279.98;25192;1313;3051583;-67
2022/05/07 11:37:44;;;;;;;16.10;3.20;;;;;;;21.48;17.31;100278.04;25195;1312;3028626;-67
2022/05/07 11:40:14;;;;;;;7.80;2.50;;;;;;;21.50;17.64;100275.81;25179;1313;3049037;-65
2022/05/07 11:42:46;;;;;;;9.20;2.80;;;;;;;21.60;17.69;100265.58;25223;1313;3026688;-66
2022/05/07 11:45:26;;;;;;;11.30;2.60;;;;;;;21.77;17.52;100262.35;25177;1313;3026344;-65
2022/05/07 11:48:08;;;;;;;6.30;2.30;;;;;;;21.74;17.32;100259.83;25133;1312;3071409;-66
2022/05/07 11:50:49;;;;;;;10.10;2.90;;;;;;;21.76;17.44;100261.40;25181;1313;3051823;-67
2022/05/07 11:53:24;;;;;;;6.20;2.50;;;;;;;21.90;17.34;100262.23;25221;1311;3052323;-64